^^
Station Historical Data
Daily Summary for April 21, 2017 Units:  Both    English   Metric
« Previous Day
Next Day »
Daily Weekly Monthly Yearly Custom
  High: Low: Average:
Temperature: 46.5 °F /  8.1 °C 40.3 °F /  4.6 °C 43.5 °F /  6.4 °C
Dew Point: 41.4 °F /  5.2 °C 35.8 °F /  2.1 °C 38.3 °F /  3.5 °C
Humidity: 87% 67% 82%
Wind Speed: 24.2mph /  38.9km/h - 10.2mph /  16.4km/h
Wind Gust: 24.2mph /  38.9km/h - -
Wind- - SE
Pressure: 30.17 in /  1021.6 hPa 29.73 in /  1006.7 hPa -
Precipitation: 0.48 in /  12.19 mm    
Historical Graphs
 
 
Tabular Data for April 21, 2017
Time Temperature Dew Point Pressure Wind Wind Speed Wind Gust Humidity Rainfall Rate (Hourly) solar Conditions
00:01 45.3 °F /  7.4 °C 41.1 °F /  5.1 °C 29.84in /  1010.4hPa ESE 12.7mph /  20.4km/h 12.7mph /  20.4km/h 85% 0.00in /  0mm WeatherDisplay:10.37 W/m2 RA
00:06 45.2 °F /  7.3 °C 40.7 °F /  4.8 °C 29.81in /  1009.4hPa East 13.8mph /  22.2km/h 13.8mph /  22.2km/h 84% 0.00in /  0mm WeatherDisplay:10.37 W/m2 RA
00:11 45.2 °F /  7.3 °C 40.7 °F /  4.8 °C 29.81in /  1009.4hPa East 14.0mph /  22.5km/h 14.0mph /  22.5km/h 84% 0.00in /  0mm WeatherDisplay:10.37 W/m2 CLR
00:16 45.1 °F /  7.3 °C 40.9 °F /  4.9 °C 29.81in /  1009.4hPa SE 10.4mph /  16.7km/h 10.4mph /  16.7km/h 85% 0.00in /  0mm WeatherDisplay:10.37 W/m2 CLR
00:21 45.2 °F /  7.3 °C 41.0 °F /  5 °C 29.81in /  1009.4hPa ESE 11.5mph /  18.5km/h 11.5mph /  18.5km/h 85% 0.00in /  0mm WeatherDisplay:10.37 W/m2 CLR
00:22 45.2 °F /  7.3 °C 41.0 °F /  5 °C 29.81in /  1009.4hPa ESE 11.5mph /  18.5km/h 11.5mph /  18.5km/h 85% 0.00in /  0mm WeatherDisplay:10.37 W/m2 CLR
00:27 45.2 °F /  7.3 °C 41.0 °F /  5 °C 29.82in /  1009.7hPa SE 13.0mph /  20.9km/h 13.0mph /  20.9km/h 85% 0.00in /  0mm WeatherDisplay:10.37 W/m2 CLR
00:32 45.2 °F /  7.3 °C 41.0 °F /  5 °C 29.82in /  1009.7hPa ESE 12.0mph /  19.3km/h 12.0mph /  19.3km/h 85% 0.00in /  0mm WeatherDisplay:10.37 W/m2 CLR
00:37 45.1 °F /  7.3 °C 40.9 °F /  4.9 °C 29.82in /  1009.7hPa East 10.4mph /  16.7km/h 10.4mph /  16.7km/h 85% 0.00in /  0mm WeatherDisplay:10.37 W/m2 CLR
00:42 45.2 °F /  7.3 °C 41.0 °F /  5 °C 29.81in /  1009.4hPa ESE 11.5mph /  18.5km/h 11.5mph /  18.5km/h 85% 0.00in /  0mm WeatherDisplay:10.37 W/m2 CLR
00:47 45.2 °F /  7.3 °C 41.0 °F /  5 °C 29.81in /  1009.4hPa East 16.1mph /  25.9km/h 16.1mph /  25.9km/h 85% 0.00in /  0mm WeatherDisplay:10.37 W/m2 CLR
00:52 45.3 °F /  7.4 °C 41.1 °F /  5.1 °C 29.81in /  1009.4hPa ESE 13.8mph /  22.2km/h 13.8mph /  22.2km/h 85% 0.00in /  0mm WeatherDisplay:10.37 W/m2 CLR
00:57 45.3 °F /  7.4 °C 41.1 °F /  5.1 °C 29.80in /  1009hPa East 12.0mph /  19.3km/h 12.0mph /  19.3km/h 85% 0.00in /  0mm WeatherDisplay:10.37 W/m2 CLR
01:02 45.3 °F /  7.4 °C 41.4 °F /  5.2 °C 29.80in /  1009hPa ENE 14.0mph /  22.5km/h 14.0mph /  22.5km/h 86% 0.00in /  0mm WeatherDisplay:10.37 W/m2 CLR
01:07 45.3 °F /  7.4 °C 41.1 °F /  5.1 °C 29.79in /  1008.7hPa ESE 13.8mph /  22.2km/h 13.8mph /  22.2km/h 85% 0.00in /  0mm WeatherDisplay:10.37 W/m2 CLR
01:12 45.3 °F /  7.4 °C 41.4 °F /  5.2 °C 29.79in /  1008.7hPa ESE 11.5mph /  18.5km/h 11.5mph /  18.5km/h 86% 0.00in /  0mm WeatherDisplay:10.37 W/m2 CLR
01:22 45.2 °F /  7.3 °C 41.3 °F /  5.2 °C 29.79in /  1008.7hPa East 13.8mph /  22.2km/h 13.8mph /  22.2km/h 86% 0.00in /  0mm WeatherDisplay:10.37 W/m2 CLR
01:27 45.3 °F /  7.4 °C 41.4 °F /  5.2 °C 29.79in /  1008.7hPa ESE 11.5mph /  18.5km/h 11.5mph /  18.5km/h 86% 0.00in /  0mm WeatherDisplay:10.37 W/m2 CLR
01:32 45.3 °F /  7.4 °C 41.4 °F /  5.2 °C 29.78in /  1008.4hPa East 10.4mph /  16.7km/h 10.4mph /  16.7km/h 86% 0.00in /  0mm WeatherDisplay:10.37 W/m2 CLR
01:37 45.4 °F /  7.4 °C 41.2 °F /  5.1 °C 29.78in /  1008.4hPa East 11.5mph /  18.5km/h 11.5mph /  18.5km/h 85% 0.00in /  0mm WeatherDisplay:10.37 W/m2 CLR
01:42 45.4 °F /  7.4 °C 41.2 °F /  5.1 °C 29.78in /  1008.4hPa ESE 13.8mph /  22.2km/h 13.8mph /  22.2km/h 85% 0.00in /  0mm WeatherDisplay:10.37 W/m2 CLR
01:47 45.5 °F /  7.5 °C 41.3 °F /  5.2 °C 29.77in /  1008hPa ESE 14.0mph /  22.5km/h 14.0mph /  22.5km/h 85% 0.00in /  0mm WeatherDisplay:10.37 W/m2 CLR
01:52 45.6 °F /  7.6 °C 41.0 °F /  5 °C 29.77in /  1008hPa ESE 17.3mph /  27.8km/h 17.3mph /  27.8km/h 84% 0.00in /  0mm WeatherDisplay:10.37 W/m2 CLR
01:57 45.6 °F /  7.6 °C 41.0 °F /  5 °C 29.76in /  1007.7hPa ESE 19.6mph /  31.5km/h 19.6mph /  31.5km/h 84% 0.00in /  0mm WeatherDisplay:10.37 W/m2 CLR
02:02 45.6 °F /  7.6 °C 41.0 °F /  5 °C 29.75in /  1007.3hPa SE 16.1mph /  25.9km/h 16.1mph /  25.9km/h 84% 0.00in /  0mm WeatherDisplay:10.37 W/m2 CLR
02:07 45.6 °F /  7.6 °C 41.0 °F /  5 °C 29.75in /  1007.3hPa SE 16.0mph /  25.7km/h 16.0mph /  25.7km/h 84% 0.00in /  0mm WeatherDisplay:10.37 W/m2 CLR
02:12 45.6 °F /  7.6 °C 40.7 °F /  4.8 °C 29.75in /  1007.3hPa ESE 20.7mph /  33.3km/h 20.7mph /  33.3km/h 83% 0.00in /  0mm WeatherDisplay:10.37 W/m2 CLR
02:17 45.6 °F /  7.6 °C 40.7 °F /  4.8 °C 29.74in /  1007hPa ESE 18.4mph /  29.6km/h 18.4mph /  29.6km/h 83% 0.00in /  0mm WeatherDisplay:10.37 W/m2 CLR
02:22 45.6 °F /  7.6 °C 40.7 °F /  4.8 °C 29.74in /  1007hPa ESE 15.0mph /  24.1km/h 15.0mph /  24.1km/h 83% 0.00in /  0mm WeatherDisplay:10.37 W/m2 CLR
02:27 45.6 °F /  7.6 °C 40.4 °F /  4.7 °C 29.74in /  1007hPa ESE 18.4mph /  29.6km/h 18.4mph /  29.6km/h 82% 0.00in /  0mm WeatherDisplay:10.37 W/m2 CLR
02:32 45.6 °F /  7.6 °C 40.7 °F /  4.8 °C 29.74in /  1007hPa SE 12.7mph /  20.4km/h 12.7mph /  20.4km/h 83% 0.00in /  0mm WeatherDisplay:10.37 W/m2 CLR
02:37 45.5 °F /  7.5 °C 40.9 °F /  4.9 °C 29.73in /  1006.7hPa SSE 15.0mph /  24.1km/h 15.0mph /  24.1km/h 84% 0.00in /  0mm WeatherDisplay:10.37 W/m2 CLR
02:42 45.5 °F /  7.5 °C 40.9 °F /  4.9 °C 29.73in /  1006.7hPa ESE 15.0mph /  24.1km/h 15.0mph /  24.1km/h 84% 0.00in /  0mm WeatherDisplay:10.37 W/m2 CLR
02:47 45.4 °F /  7.4 °C 40.8 °F /  4.9 °C 29.73in /  1006.7hPa ESE 13.8mph /  22.2km/h 13.8mph /  22.2km/h 84% 0.00in /  0mm WeatherDisplay:10.37 W/m2 CLR
02:52 45.4 °F /  7.4 °C 40.8 °F /  4.9 °C 29.73in /  1006.7hPa SE 13.8mph /  22.2km/h 13.8mph /  22.2km/h 84% 0.00in /  0mm WeatherDisplay:10.37 W/m2 CLR
02:57 45.3 °F /  7.4 °C 40.1 °F /  4.5 °C 29.73in /  1006.7hPa ESE 15.0mph /  24.1km/h 15.0mph /  24.1km/h 82% 0.00in /  0mm WeatherDisplay:10.37 W/m2 CLR
03:02 45.1 °F /  7.3 °C 39.6 °F /  4.2 °C 29.76in /  1007.7hPa SE 15.0mph /  24.1km/h 15.0mph /  24.1km/h 81% 0.00in /  0mm WeatherDisplay:10.37 W/m2 CLR
03:07 45.0 °F /  7.2 °C 39.8 °F /  4.3 °C 29.76in /  1007.7hPa ESE 11.5mph /  18.5km/h 11.5mph /  18.5km/h 82% 0.00in /  0mm WeatherDisplay:10.37 W/m2 CLR
03:12 44.9 °F /  7.2 °C 39.7 °F /  4.3 °C 29.76in /  1007.7hPa ESE 17.3mph /  27.8km/h 17.3mph /  27.8km/h 82% 0.00in /  0mm WeatherDisplay:10.37 W/m2 CLR
03:17 44.9 °F /  7.2 °C 39.7 °F /  4.3 °C 29.76in /  1007.7hPa SE 13.8mph /  22.2km/h 13.8mph /  22.2km/h 82% 0.00in /  0mm WeatherDisplay:10.37 W/m2 CLR
03:22 44.8 °F /  7.1 °C 40.3 °F /  4.6 °C 29.76in /  1007.7hPa East 12.0mph /  19.3km/h 12.0mph /  19.3km/h 84% 0.00in /  0mm WeatherDisplay:10.37 W/m2 CLR
03:27 44.8 °F /  7.1 °C 40.6 °F /  4.8 °C 29.76in /  1007.7hPa SE 11.5mph /  18.5km/h 11.5mph /  18.5km/h 85% 0.01in /  0.25mm WeatherDisplay:10.37 W/m2 RA
03:32 44.7 °F /  7.1 °C 40.8 °F /  4.9 °C 29.76in /  1007.7hPa East 12.7mph /  20.4km/h 12.7mph /  20.4km/h 86% 0.02in /  0.51mm WeatherDisplay:10.37 W/m2 RA
03:37 44.6 °F /  7 °C 40.4 °F /  4.7 °C 29.76in /  1007.7hPa ESE 16.1mph /  25.9km/h 16.1mph /  25.9km/h 85% 0.04in /  1.02mm WeatherDisplay:10.37 W/m2 RA
03:42 44.6 °F /  7 °C 40.7 °F /  4.8 °C 29.76in /  1007.7hPa SE 8.1mph /  13km/h 8.1mph /  13km/h 86% 0.06in /  1.52mm WeatherDisplay:10.37 W/m2 RA
03:47 44.5 °F /  6.9 °C 40.6 °F /  4.8 °C 29.76in /  1007.7hPa ESE 9.2mph /  14.8km/h 9.2mph /  14.8km/h 86% 0.08in /  2.03mm WeatherDisplay:10.37 W/m2 RA
03:52 44.5 °F /  6.9 °C 40.9 °F /  4.9 °C 29.75in /  1007.3hPa ESE 11.5mph /  18.5km/h 11.5mph /  18.5km/h 87% 0.12in /  3.05mm WeatherDisplay:10.37 W/m2 RA
03:57 44.4 °F /  6.9 °C 40.8 °F /  4.9 °C 29.75in /  1007.3hPa ESE 11.5mph /  18.5km/h 11.5mph /  18.5km/h 87% 0.14in /  3.56mm WeatherDisplay:10.37 W/m2 RA
04:02 44.3 °F /  6.8 °C 40.1 °F /  4.5 °C 29.76in /  1007.7hPa ESE 21.9mph /  35.2km/h 21.9mph /  35.2km/h 85% 0.16in /  4.06mm WeatherDisplay:10.37 W/m2 RA
04:07 44.3 °F /  6.8 °C 40.4 °F /  4.7 °C 29.75in /  1007.3hPa ESE 19.6mph /  31.5km/h 19.6mph /  31.5km/h 86% 0.18in /  4.57mm WeatherDisplay:10.37 W/m2 RA
04:12 44.2 °F /  6.8 °C 40.3 °F /  4.6 °C 29.75in /  1007.3hPa SE 16.1mph /  25.9km/h 16.1mph /  25.9km/h 86% 0.19in /  4.83mm WeatherDisplay:10.37 W/m2 RA
04:17 44.2 °F /  6.8 °C 40.3 °F /  4.6 °C 29.75in /  1007.3hPa SE 13.8mph /  22.2km/h 13.8mph /  22.2km/h 86% 0.20in /  5.08mm WeatherDisplay:10.37 W/m2 RA
04:27 44.2 °F /  6.8 °C 40.3 °F /  4.6 °C 29.74in /  1007hPa SE 16.1mph /  25.9km/h 16.1mph /  25.9km/h 86% 0.22in /  5.59mm WeatherDisplay:10.37 W/m2 RA
04:32 44.1 °F /  6.7 °C 39.9 °F /  4.4 °C 29.74in /  1007hPa SE 17.3mph /  27.8km/h 17.3mph /  27.8km/h 85% 0.23in /  5.84mm WeatherDisplay:10.37 W/m2 RA
04:37 44.1 °F /  6.7 °C 39.9 °F /  4.4 °C 29.74in /  1007hPa ESE 17.3mph /  27.8km/h 17.3mph /  27.8km/h 85% 0.23in /  5.84mm WeatherDisplay:10.37 W/m2 RA
04:42 44.0 °F /  6.7 °C 39.5 °F /  4.2 °C 29.74in /  1007hPa ESE 12.7mph /  20.4km/h 12.7mph /  20.4km/h 84% 0.22in /  5.59mm WeatherDisplay:10.37 W/m2 RA
04:47 43.9 °F /  6.6 °C 39.4 °F /  4.1 °C 29.74in /  1007hPa East 15.0mph /  24.1km/h 15.0mph /  24.1km/h 84% 0.21in /  5.33mm WeatherDisplay:10.37 W/m2 RA
04:52 43.9 °F /  6.6 °C 39.7 °F /  4.3 °C 29.74in /  1007hPa ESE 11.5mph /  18.5km/h 11.5mph /  18.5km/h 85% 0.18in /  4.57mm WeatherDisplay:10.37 W/m2 RA
04:57 43.8 °F /  6.6 °C 39.6 °F /  4.2 °C 29.74in /  1007hPa ESE 10.4mph /  16.7km/h 10.4mph /  16.7km/h 85% 0.17in /  4.32mm WeatherDisplay:10.37 W/m2 RA
05:02 43.8 °F /  6.6 °C 39.9 °F /  4.4 °C 29.75in /  1007.3hPa ESE 9.2mph /  14.8km/h 9.2mph /  14.8km/h 86% 0.16in /  4.06mm WeatherDisplay:10.37 W/m2 RA
05:07 43.8 °F /  6.6 °C 39.9 °F /  4.4 °C 29.76in /  1007.7hPa SE 10.4mph /  16.7km/h 10.4mph /  16.7km/h 86% 0.15in /  3.81mm WeatherDisplay:10.37 W/m2 RA
05:12 43.8 °F /  6.6 °C 39.9 °F /  4.4 °C 29.75in /  1007.3hPa ESE 5.8mph /  9.3km/h 6.3mph /  10.1km/h 86% 0.15in /  3.81mm WeatherDisplay:10.37 W/m2 RA
05:17 43.8 °F /  6.6 °C 39.9 °F /  4.4 °C 29.75in /  1007.3hPa SE 11.5mph /  18.5km/h 11.5mph /  18.5km/h 86% 0.14in /  3.56mm WeatherDisplay:10.37 W/m2 RA
05:22 43.7 °F /  6.5 °C 39.8 °F /  4.3 °C 29.75in /  1007.3hPa ESE 11.5mph /  18.5km/h 11.5mph /  18.5km/h 86% 0.14in /  3.56mm WeatherDisplay:10.37 W/m2 RA
05:27 43.7 °F /  6.5 °C 39.8 °F /  4.3 °C 29.75in /  1007.3hPa SE 11.5mph /  18.5km/h 11.5mph /  18.5km/h 86% 0.13in /  3.3mm WeatherDisplay:10.37 W/m2 RA
05:32 43.7 °F /  6.5 °C 40.1 °F /  4.5 °C 29.75in /  1007.3hPa SE 7.0mph /  11.3km/h 7.0mph /  11.3km/h 87% 0.11in /  2.79mm WeatherDisplay:10.37 W/m2 RA
05:37 43.6 °F /  6.4 °C 40.0 °F /  4.4 °C 29.75in /  1007.3hPa East 9.2mph /  14.8km/h 9.2mph /  14.8km/h 87% 0.10in /  2.54mm WeatherDisplay:10.37 W/m2 RA
05:42 43.5 °F /  6.4 °C 39.9 °F /  4.4 °C 29.75in /  1007.3hPa SE 10.4mph /  16.7km/h 10.4mph /  16.7km/h 87% 0.09in /  2.29mm WeatherDisplay:10.37 W/m2 RA
05:47 43.5 °F /  6.4 °C 39.9 °F /  4.4 °C 29.75in /  1007.3hPa ESE 10.4mph /  16.7km/h 10.4mph /  16.7km/h 87% 0.08in /  2.03mm WeatherDisplay:10.37 W/m2 CLR
05:52 43.5 °F /  6.4 °C 39.9 °F /  4.4 °C 29.76in /  1007.7hPa East 7.0mph /  11.3km/h 7.0mph /  11.3km/h 87% 0.07in /  1.78mm WeatherDisplay:10.37 W/m2 CLR
05:57 43.6 °F /  6.4 °C 40.0 °F /  4.4 °C 29.75in /  1007.3hPa ESE 10.4mph /  16.7km/h 10.4mph /  16.7km/h 87% 0.06in /  1.52mm WeatherDisplay:10.37 W/m2 CLR
06:02 43.5 °F /  6.4 °C 39.9 °F /  4.4 °C 29.76in /  1007.7hPa SE 10.4mph /  16.7km/h 10.4mph /  16.7km/h 87% 0.05in /  1.27mm WeatherDisplay:10.37 W/m2 CLR
06:07 43.6 °F /  6.4 °C 40.0 °F /  4.4 °C 29.76in /  1007.7hPa SE 11.5mph /  18.5km/h 11.5mph /  18.5km/h 87% 0.04in /  1.02mm WeatherDisplay:10.37 W/m2 CLR
06:12 43.6 °F /  6.4 °C 40.0 °F /  4.4 °C 29.76in /  1007.7hPa SE 11.5mph /  18.5km/h 11.5mph /  18.5km/h 87% 0.03in /  0.76mm WeatherDisplay:10.37 W/m2 CLR
06:17 43.7 °F /  6.5 °C 40.1 °F /  4.5 °C 29.76in /  1007.7hPa SE 6.9mph /  11.1km/h 6.9mph /  11.1km/h 87% 0.03in /  0.76mm WeatherDisplay:10.37 W/m2 CLR
06:22 43.7 °F /  6.5 °C 39.8 °F /  4.3 °C 29.76in /  1007.7hPa SE 11.5mph /  18.5km/h 11.5mph /  18.5km/h 86% 0.01in /  0.25mm WeatherDisplay:10.37 W/m2 CLR
06:27 43.8 °F /  6.6 °C 39.9 °F /  4.4 °C 29.77in /  1008hPa SSE 9.2mph /  14.8km/h 9.2mph /  14.8km/h 86% 0.01in /  0.25mm WeatherDisplay:10.37 W/m2 CLR
06:32 43.8 °F /  6.6 °C 39.6 °F /  4.2 °C 29.76in /  1007.7hPa SE 11.5mph /  18.5km/h 11.5mph /  18.5km/h 85% 0.00in /  0mm WeatherDisplay:10.37 W/m2 CLR
06:37 43.8 °F /  6.6 °C 39.9 °F /  4.4 °C 29.76in /  1007.7hPa SE 11.5mph /  18.5km/h 11.5mph /  18.5km/h 86% 0.00in /  0mm WeatherDisplay:10.37 W/m2 CLR
06:42 43.8 °F /  6.6 °C 39.6 °F /  4.2 °C 29.76in /  1007.7hPa SE 13.8mph /  22.2km/h 13.8mph /  22.2km/h 85% 0.00in /  0mm WeatherDisplay:10.37 W/m2 CLR
06:47 43.9 °F /  6.6 °C 39.7 °F /  4.3 °C 29.77in /  1008hPa SSE 12.7mph /  20.4km/h 12.7mph /  20.4km/h 85% 0.00in /  0mm WeatherDisplay:10.37 W/m2 CLR
06:52 43.9 °F /  6.6 °C 39.7 °F /  4.3 °C 29.76in /  1007.7hPa SSE 11.5mph /  18.5km/h 11.5mph /  18.5km/h 85% 0.00in /  0mm WeatherDisplay:10.37 W/m2 CLR
06:58 43.9 °F /  6.6 °C 39.7 °F /  4.3 °C 29.76in /  1007.7hPa SE 15.0mph /  24.1km/h 15.0mph /  24.1km/h 85% 0.00in /  0mm WeatherDisplay:10.37 W/m2 CLR
07:03 43.9 °F /  6.6 °C 40.0 °F /  4.4 °C 29.80in /  1009hPa SE 11.5mph /  18.5km/h 11.5mph /  18.5km/h 86% 0.00in /  0mm WeatherDisplay:10.37 W/m2 CLR
07:08 43.9 °F /  6.6 °C 39.7 °F /  4.3 °C 29.82in /  1009.7hPa NNW 2.3mph /  3.7km/h 2.3mph /  3.7km/h 85% 0.00in /  0mm WeatherDisplay:10.37 W/m2 CLR
07:13 44.0 °F /  6.7 °C 39.8 °F /  4.3 °C 29.82in /  1009.7hPa West 4.6mph /  7.4km/h 4.6mph /  7.4km/h 85% 0.00in /  0mm WeatherDisplay:10.37 W/m2 CLR
07:18 44.1 °F /  6.7 °C 39.6 °F /  4.2 °C 29.82in /  1009.7hPa West 2.3mph /  3.7km/h 2.3mph /  3.7km/h 84% 0.00in /  0mm WeatherDisplay:10.37 W/m2 CLR
07:23 44.2 °F /  6.8 °C 39.7 °F /  4.3 °C 29.82in /  1009.7hPa Calm     84% 0.00in /  0mm WeatherDisplay:10.37 W/m2 CLR
07:28 44.3 °F /  6.8 °C 39.8 °F /  4.3 °C 29.82in /  1009.7hPa Calm     84% 0.00in /  0mm WeatherDisplay:10.37 W/m2 CLR
07:33 44.3 °F /  6.8 °C 40.1 °F /  4.5 °C 29.82in /  1009.7hPa North 2.0mph /  3.2km/h 2.0mph /  3.2km/h 85% 0.00in /  0mm WeatherDisplay:10.37 W/m2 CLR
07:38 44.4 °F /  6.9 °C 39.9 °F /  4.4 °C 29.83in /  1010hPa NNW 4.6mph /  7.4km/h 4.6mph /  7.4km/h 84% 0.01in /  0.25mm WeatherDisplay:10.37 W/m2 RA
07:43 44.5 °F /  6.9 °C 40.0 °F /  4.4 °C 29.82in /  1009.7hPa NNW 3.5mph /  5.6km/h 3.5mph /  5.6km/h 84% 0.01in /  0.25mm WeatherDisplay:10.37 W/m2 RA
07:48 44.7 °F /  7.1 °C 40.2 °F /  4.6 °C 29.82in /  1009.7hPa Calm     84% 0.01in /  0.25mm WeatherDisplay:10.37 W/m2
07:53 44.8 °F /  7.1 °C 40.6 °F /  4.8 °C 29.82in /  1009.7hPa NW 3.5mph /  5.6km/h 3.5mph /  5.6km/h 85% 0.01in /  0.25mm WeatherDisplay:10.37 W/m2 CLR
07:58 44.9 °F /  7.2 °C 41.0 °F /  5 °C 29.83in /  1010hPa NW 1.2mph /  1.9km/h 1.2mph /  1.9km/h 86% 0.01in /  0.25mm WeatherDisplay:10.37 W/m2 CLR
08:03 45.0 °F /  7.2 °C 41.4 °F /  5.2 °C 29.83in /  1010hPa Calm     87% 0.01in /  0.25mm WeatherDisplay:10.37 W/m2 CLR
08:08 45.0 °F /  7.2 °C 41.4 °F /  5.2 °C 29.83in /  1010hPa NW 1.2mph /  1.9km/h 1.2mph /  1.9km/h 87% 0.01in /  0.25mm WeatherDisplay:10.37 W/m2 CLR
08:13 45.0 °F /  7.2 °C 41.1 °F /  5.1 °C 29.82in /  1009.7hPa Calm     86% 0.01in /  0.25mm WeatherDisplay:10.37 W/m2 CLR
08:18 45.1 °F /  7.3 °C 41.2 °F /  5.1 °C 29.83in /  1010hPa NW 1.2mph /  1.9km/h   86% 0.01in /  0.25mm WeatherDisplay:10.37 W/m2 CLR
08:23 45.0 °F /  7.2 °C 41.1 °F /  5.1 °C 29.82in /  1009.7hPa NNW 2.0mph /  3.2km/h 2.0mph /  3.2km/h 86% 0.01in /  0.25mm WeatherDisplay:10.37 W/m2 CLR
08:28 45.1 °F /  7.3 °C 40.9 °F /  4.9 °C 29.82in /  1009.7hPa NNW 5.8mph /  9.3km/h 5.8mph /  9.3km/h 85% 0.01in /  0.25mm WeatherDisplay:10.37 W/m2 CLR
08:33 45.3 °F /  7.4 °C 41.1 °F /  5.1 °C 29.82in /  1009.7hPa NNW 2.3mph /  3.7km/h   85% 0.01in /  0.25mm WeatherDisplay:10.37 W/m2 CLR
08:38 45.4 °F /  7.4 °C 38.6 °F /  3.7 °C 29.83in /  1010hPa NNE 11.5mph /  18.5km/h 11.5mph /  18.5km/h 77% 0.00in /  0mm WeatherDisplay:10.37 W/m2 CLR
08:43 45.3 °F /  7.4 °C 38.8 °F /  3.8 °C 29.83in /  1010hPa North 6.0mph /  9.7km/h 6.0mph /  9.7km/h 78% 0.00in /  0mm WeatherDisplay:10.37 W/m2 CLR
08:48 45.4 °F /  7.4 °C 39.9 °F /  4.4 °C 29.83in /  1010hPa West 1.2mph /  1.9km/h 1.2mph /  1.9km/h 81% 0.00in /  0mm WeatherDisplay:10.37 W/m2 CLR
08:58 45.5 °F /  7.5 °C 39.4 °F /  4.1 °C 29.83in /  1010hPa NNW 3.5mph /  5.6km/h 3.5mph /  5.6km/h 79% 0.00in /  0mm WeatherDisplay:10.37 W/m2 CLR
09:03 45.3 °F /  7.4 °C 38.5 °F /  3.6 °C 29.83in /  1010hPa WSW 6.9mph /  11.1km/h 6.9mph /  11.1km/h 77% 0.00in /  0mm WeatherDisplay:10.37 W/m2 CLR
09:08 45.1 °F /  7.3 °C 38.3 °F /  3.5 °C 29.83in /  1010hPa SE 4.6mph /  7.4km/h 4.6mph /  7.4km/h 77% 0.00in /  0mm WeatherDisplay:10.37 W/m2 CLR
09:13 45.0 °F /  7.2 °C 37.9 °F /  3.3 °C 29.83in /  1010hPa NNW 17.3mph /  27.8km/h 17.3mph /  27.8km/h 76% 0.00in /  0mm WeatherDisplay:10.37 W/m2 CLR
09:18 44.9 °F /  7.2 °C 37.8 °F /  3.2 °C 29.83in /  1010hPa North 19.6mph /  31.5km/h 19.6mph /  31.5km/h 76% 0.00in /  0mm WeatherDisplay:10.37 W/m2 CLR
09:23 43.9 °F /  6.6 °C 37.2 °F /  2.9 °C 29.85in /  1010.7hPa SW 12.7mph /  20.4km/h 12.7mph /  20.4km/h 77% 0.00in /  0mm WeatherDisplay:10.37 W/m2 CLR
09:28 43.5 °F /  6.4 °C 37.1 °F /  2.8 °C 29.86in /  1011.1hPa NE 17.3mph /  27.8km/h 17.3mph /  27.8km/h 78% 0.00in /  0mm WeatherDisplay:10.37 W/m2 CLR
09:33 43.5 °F /  6.4 °C 37.4 °F /  3 °C 29.85in /  1010.7hPa North 17.3mph /  27.8km/h 17.3mph /  27.8km/h 79% 0.00in /  0mm WeatherDisplay:10.37 W/m2 CLR
09:34 43.5 °F /  6.4 °C 37.4 °F /  3 °C 29.86in /  1011.1hPa NW 16.1mph /  25.9km/h 16.1mph /  25.9km/h 79% 0.00in /  0mm WeatherDisplay:10.37 W/m2 CLR
09:39 43.4 °F /  6.3 °C 37.3 °F /  2.9 °C 29.86in /  1011.1hPa NE 21.9mph /  35.2km/h 21.9mph /  35.2km/h 79% 0.00in /  0mm WeatherDisplay:10.37 W/m2 CLR
09:44 43.4 °F /  6.3 °C 37.6 °F /  3.1 °C 29.86in /  1011.1hPa North 9.0mph /  14.5km/h 9.0mph /  14.5km/h 80% 0.00in /  0mm WeatherDisplay:10.37 W/m2 CLR
09:49 43.4 °F /  6.3 °C 37.3 °F /  2.9 °C 29.86in /  1011.1hPa NNW 16.1mph /  25.9km/h 16.1mph /  25.9km/h 79% 0.00in /  0mm WeatherDisplay:10.37 W/m2 CLR
09:54 43.4 °F /  6.3 °C 37.0 °F /  2.8 °C 29.87in /  1011.4hPa NNE 13.8mph /  22.2km/h 13.8mph /  22.2km/h 78% 0.00in /  0mm WeatherDisplay:10.37 W/m2 CLR
09:59 43.5 °F /  6.4 °C 37.1 °F /  2.8 °C 29.87in /  1011.4hPa North 17.3mph /  27.8km/h 17.3mph /  27.8km/h 78% 0.00in /  0mm WeatherDisplay:10.37 W/m2 CLR
10:04 43.6 °F /  6.4 °C 37.8 °F /  3.2 °C 29.88in /  1011.7hPa North 12.7mph /  20.4km/h 12.7mph /  20.4km/h 80% 0.00in /  0mm WeatherDisplay:10.37 W/m2 CLR
10:09 43.6 °F /  6.4 °C 38.2 °F /  3.4 °C 29.88in /  1011.7hPa North 18.4mph /  29.6km/h 18.4mph /  29.6km/h 81% 0.00in /  0mm WeatherDisplay:10.37 W/m2 CLR
10:14 43.4 °F /  6.3 °C 37.3 °F /  2.9 °C 29.90in /  1012.4hPa North 24.2mph /  38.9km/h 24.2mph /  38.9km/h 79% 0.00in /  0mm WeatherDisplay:10.37 W/m2 CLR
10:19 43.0 °F /  6.1 °C 37.6 °F /  3.1 °C 29.90in /  1012.4hPa West 17.3mph /  27.8km/h 17.3mph /  27.8km/h 81% 0.00in /  0mm WeatherDisplay:10.37 W/m2 CLR
10:24 42.8 °F /  6 °C 37.4 °F /  3 °C 29.91in /  1012.8hPa NNW 15.0mph /  24.1km/h 15.0mph /  24.1km/h 81% 0.00in /  0mm WeatherDisplay:10.37 W/m2 CLR
10:29 42.6 °F /  5.9 °C 37.5 °F /  3.1 °C 29.91in /  1012.8hPa NNE 13.0mph /  20.9km/h 13.0mph /  20.9km/h 82% 0.00in /  0mm WeatherDisplay:10.37 W/m2 CLR
10:34 42.4 °F /  5.8 °C 37.0 °F /  2.8 °C 29.91in /  1012.8hPa NW 16.1mph /  25.9km/h 16.1mph /  25.9km/h 81% 0.00in /  0mm WeatherDisplay:10.37 W/m2 CLR
10:39 42.2 °F /  5.7 °C 37.1 °F /  2.8 °C 29.92in /  1013.1hPa NW 19.6mph /  31.5km/h 19.6mph /  31.5km/h 82% 0.00in /  0mm WeatherDisplay:10.37 W/m2 CLR
10:44 42.2 °F /  5.7 °C 37.1 °F /  2.8 °C 29.92in /  1013.1hPa NNE 9.0mph /  14.5km/h 9.8mph /  15.8km/h 82% 0.01in /  0.25mm WeatherDisplay:10.37 W/m2 RA
10:49 42.2 °F /  5.7 °C 37.7 °F /  3.2 °C 29.93in /  1013.4hPa North 11.5mph /  18.5km/h 11.5mph /  18.5km/h 84% 0.01in /  0.25mm WeatherDisplay:10.37 W/m2 RA
10:54 42.3 °F /  5.7 °C 37.5 °F /  3.1 °C 29.93in /  1013.4hPa North 17.3mph /  27.8km/h 17.3mph /  27.8km/h 83% 0.02in /  0.51mm WeatherDisplay:10.37 W/m2 RA
11:04 42.0 °F /  5.6 °C 37.2 °F /  2.9 °C 29.95in /  1014.1hPa NNW 18.4mph /  29.6km/h 18.4mph /  29.6km/h 83% 0.03in /  0.76mm WeatherDisplay:10.37 W/m2 RA
11:09 41.5 °F /  5.3 °C 36.7 °F /  2.6 °C 29.95in /  1014.1hPa NNW 19.6mph /  31.5km/h 19.6mph /  31.5km/h 83% 0.04in /  1.02mm WeatherDisplay:10.37 W/m2 RA
11:14 41.3 °F /  5.2 °C 36.5 °F /  2.5 °C 29.96in /  1014.4hPa NNW 19.6mph /  31.5km/h 19.6mph /  31.5km/h 83% 0.04in /  1.02mm WeatherDisplay:10.37 W/m2 RA
11:19 41.4 °F /  5.2 °C 36.9 °F /  2.7 °C 29.97in /  1014.8hPa North 11.5mph /  18.5km/h 11.5mph /  18.5km/h 84% 0.04in /  1.02mm WeatherDisplay:10.37 W/m2 CLR
11:24 41.8 °F /  5.4 °C 37.0 °F /  2.8 °C 29.97in /  1014.8hPa North 20.7mph /  33.3km/h 20.7mph /  33.3km/h 83% 0.04in /  1.02mm WeatherDisplay:10.37 W/m2 CLR
11:29 42.0 °F /  5.6 °C 37.2 °F /  2.9 °C 29.97in /  1014.8hPa NNE 13.8mph /  22.2km/h 13.8mph /  22.2km/h 83% 0.04in /  1.02mm WeatherDisplay:10.37 W/m2 CLR
11:34 42.2 °F /  5.7 °C 37.7 °F /  3.2 °C 29.97in /  1014.8hPa North 9.2mph /  14.8km/h 9.2mph /  14.8km/h 84% 0.04in /  1.02mm WeatherDisplay:10.37 W/m2 CLR
11:39 42.3 °F /  5.7 °C 37.2 °F /  2.9 °C 29.97in /  1014.8hPa North 16.1mph /  25.9km/h 16.1mph /  25.9km/h 82% 0.04in /  1.02mm WeatherDisplay:10.37 W/m2 CLR
11:44 42.3 °F /  5.7 °C 38.1 °F /  3.4 °C 29.98in /  1015.1hPa NNE 9.0mph /  14.5km/h 9.0mph /  14.5km/h 85% 0.03in /  0.76mm WeatherDisplay:10.37 W/m2 CLR
11:49 42.2 °F /  5.7 °C 37.1 °F /  2.8 °C 29.98in /  1015.1hPa North 12.7mph /  20.4km/h 12.7mph /  20.4km/h 82% 0.03in /  0.76mm WeatherDisplay:10.37 W/m2 CLR
11:54 41.8 °F /  5.4 °C 37.0 °F /  2.8 °C 29.98in /  1015.1hPa NNE 13.8mph /  22.2km/h 13.8mph /  22.2km/h 83% 0.02in /  0.51mm WeatherDisplay:10.37 W/m2 CLR
11:59 41.5 °F /  5.3 °C 36.4 °F /  2.4 °C 29.99in /  1015.5hPa North 16.1mph /  25.9km/h 16.1mph /  25.9km/h 82% 0.02in /  0.51mm WeatherDisplay:10.37 W/m2 CLR
12:04 41.5 °F /  5.3 °C 36.4 °F /  2.4 °C 29.99in /  1015.5hPa NNE 13.8mph /  22.2km/h 13.8mph /  22.2km/h 82% 0.01in /  0.25mm WeatherDisplay:10.37 W/m2 CLR
12:09 41.3 °F /  5.2 °C 36.8 °F /  2.7 °C 29.99in /  1015.5hPa North 8.1mph /  13km/h 8.1mph /  13km/h 84% 0.00in /  0mm WeatherDisplay:10.37 W/m2 CLR
12:14 41.5 °F /  5.3 °C 37.0 °F /  2.8 °C 29.99in /  1015.5hPa North 9.2mph /  14.8km/h 9.2mph /  14.8km/h 84% 0.01in /  0.25mm WeatherDisplay:10.37 W/m2 RA
12:19 41.5 °F /  5.3 °C 37.0 °F /  2.8 °C 29.99in /  1015.5hPa North 10.4mph /  16.7km/h 10.4mph /  16.7km/h 84% 0.01in /  0.25mm WeatherDisplay:10.37 W/m2 RA
12:24 41.2 °F /  5.1 °C 36.4 °F /  2.4 °C 29.99in /  1015.5hPa NE 11.5mph /  18.5km/h 11.5mph /  18.5km/h 83% 0.02in /  0.51mm WeatherDisplay:10.37 W/m2 RA
12:34 40.6 °F /  4.8 °C 36.4 °F /  2.4 °C 30.00in /  1015.8hPa North 11.5mph /  18.5km/h 11.5mph /  18.5km/h 85% 0.02in /  0.51mm WeatherDisplay:10.37 W/m2
12:39 40.5 °F /  4.7 °C 36.3 °F /  2.4 °C 30.00in /  1015.8hPa NNW 10.4mph /  16.7km/h 10.4mph /  16.7km/h 85% 0.03in /  0.76mm WeatherDisplay:10.37 W/m2 RA
12:44 40.8 °F /  4.9 °C 37.2 °F /  2.9 °C 30.00in /  1015.8hPa NNE 5.8mph /  9.3km/h 5.8mph /  9.3km/h 87% 0.03in /  0.76mm WeatherDisplay:10.37 W/m2 RA
12:49 41.0 °F /  5 °C 37.1 °F /  2.8 °C 30.00in /  1015.8hPa NNE 7.0mph /  11.3km/h 7.0mph /  11.3km/h 86% 0.04in /  1.02mm WeatherDisplay:10.37 W/m2 RA
12:54 41.2 °F /  5.1 °C 37.3 °F /  2.9 °C 30.00in /  1015.8hPa NNE 10.4mph /  16.7km/h 10.4mph /  16.7km/h 86% 0.04in /  1.02mm WeatherDisplay:10.37 W/m2 RA
12:59 41.4 °F /  5.2 °C 37.5 °F /  3.1 °C 29.99in /  1015.5hPa ENE 6.9mph /  11.1km/h 6.9mph /  11.1km/h 86% 0.04in /  1.02mm WeatherDisplay:10.37 W/m2 CLR
13:00 41.4 °F /  5.2 °C 37.5 °F /  3.1 °C 29.99in /  1015.5hPa ENE 9.2mph /  14.8km/h 9.2mph /  14.8km/h 86% 0.04in /  1.02mm WeatherDisplay:10.37 W/m2 CLR
13:05 41.8 °F /  5.4 °C 38.2 °F /  3.4 °C 29.99in /  1015.5hPa NE 8.1mph /  13km/h 8.1mph /  13km/h 87% 0.04in /  1.02mm WeatherDisplay:10.37 W/m2 CLR
13:10 42.0 °F /  5.6 °C 37.8 °F /  3.2 °C 29.99in /  1015.5hPa NNE 6.9mph /  11.1km/h 6.9mph /  11.1km/h 85% 0.04in /  1.02mm WeatherDisplay:10.37 W/m2 CLR
13:15 42.2 °F /  5.7 °C 38.0 °F /  3.3 °C 29.99in /  1015.5hPa NE 4.6mph /  7.4km/h 5.1mph /  8.2km/h 85% 0.03in /  0.76mm WeatherDisplay:10.37 W/m2 CLR
13:20 42.2 °F /  5.7 °C 37.7 °F /  3.2 °C 29.99in /  1015.5hPa NE 13.8mph /  22.2km/h 13.8mph /  22.2km/h 84% 0.03in /  0.76mm WeatherDisplay:10.37 W/m2 CLR
13:25 42.2 °F /  5.7 °C 37.4 °F /  3 °C 29.99in /  1015.5hPa North 10.4mph /  16.7km/h 10.4mph /  16.7km/h 83% 0.02in /  0.51mm WeatherDisplay:10.37 W/m2 CLR
13:30 42.4 °F /  5.8 °C 36.7 °F /  2.6 °C 29.99in /  1015.5hPa ENE 12.7mph /  20.4km/h 12.7mph /  20.4km/h 80% 0.02in /  0.51mm WeatherDisplay:10.37 W/m2 CLR
13:35 42.8 °F /  6 °C 38.0 °F /  3.3 °C 29.99in /  1015.5hPa NE 10.4mph /  16.7km/h 10.4mph /  16.7km/h 83% 0.01in /  0.25mm WeatherDisplay:10.37 W/m2 CLR
13:40 43.0 °F /  6.1 °C 36.9 °F /  2.7 °C 29.99in /  1015.5hPa North 14.0mph /  22.5km/h 14.0mph /  22.5km/h 79% 0.01in /  0.25mm WeatherDisplay:10.37 W/m2 CLR
13:45 43.3 °F /  6.3 °C 37.5 °F /  3.1 °C 29.99in /  1015.5hPa NNE 10.4mph /  16.7km/h 10.4mph /  16.7km/h 80% 0.01in /  0.25mm WeatherDisplay:10.37 W/m2 CLR
13:50 43.3 °F /  6.3 °C 38.2 °F /  3.4 °C 30.00in /  1015.8hPa ENE 13.8mph /  22.2km/h 13.8mph /  22.2km/h 82% 0.00in /  0mm WeatherDisplay:10.37 W/m2 CLR
13:55 43.1 °F /  6.2 °C 37.7 °F /  3.2 °C 30.00in /  1015.8hPa NE 10.4mph /  16.7km/h 10.4mph /  16.7km/h 81% 0.00in /  0mm WeatherDisplay:10.37 W/m2 CLR
14:00 43.0 °F /  6.1 °C 37.9 °F /  3.3 °C 30.00in /  1015.8hPa NE 12.0mph /  19.3km/h 12.0mph /  19.3km/h 82% 0.00in /  0mm WeatherDisplay:10.37 W/m2 CLR
14:05 43.1 °F /  6.2 °C 38.0 °F /  3.3 °C 30.00in /  1015.8hPa NE 10.0mph /  16.1km/h 10.0mph /  16.1km/h 82% 0.00in /  0mm WeatherDisplay:10.37 W/m2 CLR
14:10 43.3 °F /  6.3 °C 38.2 °F /  3.4 °C 30.00in /  1015.8hPa NNE 6.9mph /  11.1km/h 6.9mph /  11.1km/h 82% 0.00in /  0mm WeatherDisplay:10.37 W/m2 CLR
14:15 43.6 °F /  6.4 °C 37.8 °F /  3.2 °C 30.00in /  1015.8hPa ENE 11.5mph /  18.5km/h 11.5mph /  18.5km/h 80% 0.00in /  0mm WeatherDisplay:10.37 W/m2 CLR
14:20 44.3 °F /  6.8 °C 37.2 °F /  2.9 °C 30.00in /  1015.8hPa NE 13.8mph /  22.2km/h 13.8mph /  22.2km/h 76% 0.00in /  0mm WeatherDisplay:10.37 W/m2 CLR
14:25 45.0 °F /  7.2 °C 37.2 °F /  2.9 °C 29.99in /  1015.5hPa NE 9.2mph /  14.8km/h 9.2mph /  14.8km/h 74% 0.00in /  0mm WeatherDisplay:10.37 W/m2 CLR
14:30 45.4 °F /  7.4 °C 38.6 °F /  3.7 °C 29.99in /  1015.5hPa ENE 11.5mph /  18.5km/h 11.5mph /  18.5km/h 77% 0.00in /  0mm WeatherDisplay:10.37 W/m2 CLR
14:35 45.4 °F /  7.4 °C 38.3 °F /  3.5 °C 29.99in /  1015.5hPa NW 10.4mph /  16.7km/h 10.4mph /  16.7km/h 76% 0.00in /  0mm WeatherDisplay:10.37 W/m2 CLR
14:40 45.5 °F /  7.5 °C 39.4 °F /  4.1 °C 29.99in /  1015.5hPa NE 7.0mph /  11.3km/h 7.0mph /  11.3km/h 79% 0.00in /  0mm WeatherDisplay:10.37 W/m2 CLR
14:45 45.2 °F /  7.3 °C 38.4 °F /  3.6 °C 29.99in /  1015.5hPa NE 11.5mph /  18.5km/h 11.5mph /  18.5km/h 77% 0.01in /  0.25mm WeatherDisplay:10.37 W/m2 RA
14:50 45.3 °F /  7.4 °C 37.8 °F /  3.2 °C 29.99in /  1015.5hPa NNE 11.5mph /  18.5km/h 11.5mph /  18.5km/h 75% 0.01in /  0.25mm WeatherDisplay:10.37 W/m2 RA
14:55 45.5 °F /  7.5 °C 38.4 °F /  3.6 °C 29.99in /  1015.5hPa NE 12.7mph /  20.4km/h 12.7mph /  20.4km/h 76% 0.01in /  0.25mm WeatherDisplay:10.37 W/m2 CLR
15:00 45.7 °F /  7.6 °C 38.6 °F /  3.7 °C 29.99in /  1015.5hPa NNE 12.7mph /  20.4km/h 12.7mph /  20.4km/h 76% 0.01in /  0.25mm WeatherDisplay:10.37 W/m2 CLR
15:05 45.7 °F /  7.6 °C 37.9 °F /  3.3 °C 29.99in /  1015.5hPa ENE 12.0mph /  19.3km/h 12.0mph /  19.3km/h 74% 0.01in /  0.25mm WeatherDisplay:10.37 W/m2 CLR
15:10 45.8 °F /  7.7 °C 37.6 °F /  3.1 °C 29.99in /  1015.5hPa NE 9.2mph /  14.8km/h 9.2mph /  14.8km/h 73% 0.01in /  0.25mm WeatherDisplay:10.37 W/m2 CLR
15:15 45.9 °F /  7.7 °C 37.4 °F /  3 °C 29.99in /  1015.5hPa NE 11.5mph /  18.5km/h 11.5mph /  18.5km/h 72% 0.01in /  0.25mm WeatherDisplay:10.37 W/m2 CLR
15:20 45.9 °F /  7.7 °C 36.7 °F /  2.6 °C 30.00in /  1015.8hPa ENE 12.7mph /  20.4km/h 12.7mph /  20.4km/h 70% 0.01in /  0.25mm WeatherDisplay:10.37 W/m2 CLR
15:25 46.0 °F /  7.8 °C 36.8 °F /  2.7 °C 29.99in /  1015.5hPa ENE 12.0mph /  19.3km/h 12.0mph /  19.3km/h 70% 0.01in /  0.25mm WeatherDisplay:10.37 W/m2 CLR
15:30 45.9 °F /  7.7 °C 37.4 °F /  3 °C 29.99in /  1015.5hPa NE 10.4mph /  16.7km/h 10.4mph /  16.7km/h 72% 0.01in /  0.25mm WeatherDisplay:10.37 W/m2 CLR
15:35 46.2 °F /  7.9 °C 37.0 °F /  2.8 °C 29.99in /  1015.5hPa NE 11.5mph /  18.5km/h 11.5mph /  18.5km/h 70% 0.01in /  0.25mm WeatherDisplay:10.37 W/m2 CLR
15:40 46.4 °F /  8 °C 37.1 °F /  2.8 °C 29.99in /  1015.5hPa ENE 15.0mph /  24.1km/h 15.0mph /  24.1km/h 70% 0.01in /  0.25mm WeatherDisplay:10.37 W/m2 CLR
15:45 46.2 °F /  7.9 °C 37.3 °F /  2.9 °C 29.99in /  1015.5hPa ENE 11.5mph /  18.5km/h 11.5mph /  18.5km/h 71% 0.00in /  0mm WeatherDisplay:10.37 W/m2 CLR
15:51 46.5 °F /  8.1 °C 36.1 °F /  2.3 °C 29.99in /  1015.5hPa NE 15.0mph /  24.1km/h 15.0mph /  24.1km/h 67% 0.00in /  0mm WeatherDisplay:10.37 W/m2 CLR
15:55 46.5 °F /  8.1 °C 36.9 °F /  2.7 °C 29.99in /  1015.5hPa ENE 13.8mph /  22.2km/h 13.8mph /  22.2km/h 69% 0.00in /  0mm WeatherDisplay:10.37 W/m2 CLR
16:00 46.2 °F /  7.9 °C 37.0 °F /  2.8 °C 29.99in /  1015.5hPa ENE 18.4mph /  29.6km/h 18.4mph /  29.6km/h 70% 0.00in /  0mm WeatherDisplay:10.37 W/m2 CLR
16:05 45.9 °F /  7.7 °C 37.4 °F /  3 °C 30.00in /  1015.8hPa ENE 12.7mph /  20.4km/h 12.7mph /  20.4km/h 72% 0.00in /  0mm WeatherDisplay:10.37 W/m2 CLR
16:10 45.6 °F /  7.6 °C 36.4 °F /  2.4 °C 29.99in /  1015.5hPa ENE 16.1mph /  25.9km/h 16.1mph /  25.9km/h 70% 0.00in /  0mm WeatherDisplay:10.37 W/m2 CLR
16:15 45.4 °F /  7.4 °C 36.5 °F /  2.5 °C 30.01in /  1016.1hPa NE 11.5mph /  18.5km/h 11.5mph /  18.5km/h 71% 0.00in /  0mm WeatherDisplay:10.37 W/m2 CLR
16:20 45.5 °F /  7.5 °C 37.3 °F /  2.9 °C 30.01in /  1016.1hPa ENE 12.7mph /  20.4km/h 12.7mph /  20.4km/h 73% 0.00in /  0mm WeatherDisplay:10.37 W/m2 CLR
16:31 45.2 °F /  7.3 °C 36.0 °F /  2.2 °C 30.02in /  1016.5hPa NE 12.7mph /  20.4km/h 12.7mph /  20.4km/h 70% 0.00in /  0mm WeatherDisplay:10.37 W/m2 CLR
16:36 45.0 °F /  7.2 °C 35.8 °F /  2.1 °C 30.02in /  1016.5hPa East 12.7mph /  20.4km/h 12.7mph /  20.4km/h 70% 0.00in /  0mm WeatherDisplay:10.37 W/m2 CLR
16:41 44.9 °F /  7.2 °C 36.1 °F /  2.3 °C 30.02in /  1016.5hPa ENE 19.6mph /  31.5km/h 19.6mph /  31.5km/h 71% 0.00in /  0mm WeatherDisplay:10.37 W/m2 CLR
16:46 44.9 °F /  7.2 °C 36.8 °F /  2.7 °C 30.02in /  1016.5hPa East 13.8mph /  22.2km/h 13.8mph /  22.2km/h 73% 0.00in /  0mm WeatherDisplay:10.37 W/m2 CLR
16:51 44.8 °F /  7.1 °C 37.0 °F /  2.8 °C 30.02in /  1016.5hPa East 15.0mph /  24.1km/h 15.0mph /  24.1km/h 74% 0.00in /  0mm WeatherDisplay:10.37 W/m2 CLR
16:56 44.7 °F /  7.1 °C 37.3 °F /  2.9 °C 30.03in /  1016.8hPa ENE 15.0mph /  24.1km/h 15.0mph /  24.1km/h 75% 0.00in /  0mm WeatherDisplay:10.37 W/m2 CLR
17:01 44.8 °F /  7.1 °C 37.4 °F /  3 °C 30.03in /  1016.8hPa East 11.5mph /  18.5km/h 11.7mph /  18.8km/h 75% 0.00in /  0mm WeatherDisplay:10.37 W/m2 CLR
17:06 44.8 °F /  7.1 °C 37.4 °F /  3 °C 30.03in /  1016.8hPa NE 9.2mph /  14.8km/h 9.2mph /  14.8km/h 75% 0.00in /  0mm WeatherDisplay:10.37 W/m2 CLR
17:11 44.7 °F /  7.1 °C 36.6 °F /  2.6 °C 30.03in /  1016.8hPa ENE 8.1mph /  13km/h 8.1mph /  13km/h 73% 0.00in /  0mm WeatherDisplay:10.37 W/m2 CLR
17:16 44.7 °F /  7.1 °C 36.6 °F /  2.6 °C 30.03in /  1016.8hPa NE 13.8mph /  22.2km/h 13.8mph /  22.2km/h 73% 0.00in /  0mm WeatherDisplay:10.37 W/m2 CLR
17:21 44.6 °F /  7 °C 36.5 °F /  2.5 °C 30.03in /  1016.8hPa ENE 15.0mph /  24.1km/h 15.0mph /  24.1km/h 73% 0.00in /  0mm WeatherDisplay:10.37 W/m2 CLR
17:26 44.8 °F /  7.1 °C 36.7 °F /  2.6 °C 30.04in /  1017.2hPa ENE 15.0mph /  24.1km/h 15.0mph /  24.1km/h 73% 0.00in /  0mm WeatherDisplay:10.37 W/m2 CLR
17:31 44.7 °F /  7.1 °C 36.2 °F /  2.3 °C 30.04in /  1017.2hPa ENE 12.7mph /  20.4km/h 12.7mph /  20.4km/h 72% 0.00in /  0mm WeatherDisplay:10.37 W/m2 CLR
17:41 45.0 °F /  7.2 °C 37.2 °F /  2.9 °C 30.04in /  1017.2hPa ENE 9.2mph /  14.8km/h 9.2mph /  14.8km/h 74% 0.00in /  0mm WeatherDisplay:10.37 W/m2 CLR
17:46 44.9 °F /  7.2 °C 36.8 °F /  2.7 °C 30.05in /  1017.5hPa ENE 10.4mph /  16.7km/h 10.4mph /  16.7km/h 73% 0.00in /  0mm WeatherDisplay:10.37 W/m2 CLR
17:51 44.7 °F /  7.1 °C 37.3 °F /  2.9 °C 30.05in /  1017.5hPa ENE 11.5mph /  18.5km/h 11.5mph /  18.5km/h 75% 0.00in /  0mm WeatherDisplay:10.37 W/m2 CLR
17:56 44.5 °F /  6.9 °C 36.7 °F /  2.6 °C 30.05in /  1017.5hPa ENE 12.7mph /  20.4km/h 12.7mph /  20.4km/h 74% 0.00in /  0mm WeatherDisplay:10.37 W/m2 CLR
18:01 44.2 °F /  6.8 °C 37.1 °F /  2.8 °C 30.05in /  1017.5hPa ENE 10.4mph /  16.7km/h 10.4mph /  16.7km/h 76% 0.00in /  0mm WeatherDisplay:10.37 W/m2 CLR
18:06 44.4 °F /  6.9 °C 37.3 °F /  2.9 °C 30.05in /  1017.5hPa NE 6.9mph /  11.1km/h 6.9mph /  11.1km/h 76% 0.00in /  0mm WeatherDisplay:10.37 W/m2 CLR
18:11 44.3 °F /  6.8 °C 36.9 °F /  2.7 °C 30.06in /  1017.8hPa East 10.4mph /  16.7km/h 10.4mph /  16.7km/h 75% 0.00in /  0mm WeatherDisplay:10.37 W/m2 CLR
18:16 44.1 °F /  6.7 °C 37.0 °F /  2.8 °C 30.06in /  1017.8hPa East 11.0mph /  17.7km/h 11.0mph /  17.7km/h 76% 0.00in /  0mm WeatherDisplay:10.37 W/m2 CLR
18:21 44.0 °F /  6.7 °C 37.3 °F /  2.9 °C 30.06in /  1017.8hPa East 5.8mph /  9.3km/h 5.8mph /  9.3km/h 77% 0.00in /  0mm WeatherDisplay:10.37 W/m2 CLR
18:26 43.9 °F /  6.6 °C 37.2 °F /  2.9 °C 30.06in /  1017.8hPa East 9.2mph /  14.8km/h 9.2mph /  14.8km/h 77% 0.00in /  0mm WeatherDisplay:10.37 W/m2 CLR
18:31 43.7 °F /  6.5 °C 37.0 °F /  2.8 °C 30.06in /  1017.8hPa ENE 11.5mph /  18.5km/h 11.5mph /  18.5km/h 77% 0.00in /  0mm WeatherDisplay:10.37 W/m2 CLR
18:36 43.4 °F /  6.3 °C 37.0 °F /  2.8 °C 30.06in /  1017.8hPa ENE 10.4mph /  16.7km/h 10.4mph /  16.7km/h 78% 0.00in /  0mm WeatherDisplay:10.37 W/m2 CLR
18:41 43.4 °F /  6.3 °C 36.7 °F /  2.6 °C 30.08in /  1018.5hPa East 12.7mph /  20.4km/h 12.7mph /  20.4km/h 77% 0.00in /  0mm WeatherDisplay:10.37 W/m2 CLR
18:46 43.2 °F /  6.2 °C 36.8 °F /  2.7 °C 30.08in /  1018.5hPa East 8.1mph /  13km/h 8.1mph /  13km/h 78% 0.00in /  0mm WeatherDisplay:10.37 W/m2 CLR
18:51 43.1 °F /  6.2 °C 36.7 °F /  2.6 °C 30.08in /  1018.5hPa East 8.1mph /  13km/h 8.1mph /  13km/h 78% 0.00in /  0mm WeatherDisplay:10.37 W/m2 CLR
18:56 42.9 °F /  6.1 °C 36.5 °F /  2.5 °C 30.08in /  1018.5hPa ENE 4.6mph /  7.4km/h 4.6mph /  7.4km/h 78% 0.00in /  0mm WeatherDisplay:10.37 W/m2 CLR
19:01 42.8 °F /  6 °C 36.4 °F /  2.4 °C 30.08in /  1018.5hPa East 8.1mph /  13km/h 8.1mph /  13km/h 78% 0.00in /  0mm WeatherDisplay:10.37 W/m2 CLR
19:06 42.8 °F /  6 °C 36.7 °F /  2.6 °C 30.08in /  1018.5hPa East 6.0mph /  9.7km/h 6.0mph /  9.7km/h 79% 0.00in /  0mm WeatherDisplay:10.37 W/m2 CLR
19:11 42.7 °F /  5.9 °C 36.6 °F /  2.6 °C 30.08in /  1018.5hPa ENE 5.8mph /  9.3km/h 5.8mph /  9.3km/h 79% 0.00in /  0mm WeatherDisplay:10.37 W/m2 CLR
19:16 42.5 °F /  5.8 °C 36.8 °F /  2.7 °C 30.08in /  1018.5hPa ENE 9.2mph /  14.8km/h 9.2mph /  14.8km/h 80% 0.00in /  0mm WeatherDisplay:10.37 W/m2 CLR
19:21 42.4 °F /  5.8 °C 37.0 °F /  2.8 °C 30.09in /  1018.8hPa ENE 5.8mph /  9.3km/h 5.8mph /  9.3km/h 81% 0.00in /  0mm WeatherDisplay:10.37 W/m2 CLR
19:26 42.4 °F /  5.8 °C 36.3 °F /  2.4 °C 30.09in /  1018.8hPa ENE 9.2mph /  14.8km/h 9.2mph /  14.8km/h 79% 0.00in /  0mm WeatherDisplay:10.37 W/m2 CLR
19:31 42.3 °F /  5.7 °C 36.6 °F /  2.6 °C 30.09in /  1018.8hPa East 6.9mph /  11.1km/h 6.9mph /  11.1km/h 80% 0.00in /  0mm WeatherDisplay:10.37 W/m2 CLR
19:36 42.3 °F /  5.7 °C 36.9 °F /  2.7 °C 30.09in /  1018.8hPa ESE 7.0mph /  11.3km/h 7.0mph /  11.3km/h 81% 0.00in /  0mm WeatherDisplay:10.37 W/m2 CLR
19:41 42.2 °F /  5.7 °C 36.5 °F /  2.5 °C 30.10in /  1019.2hPa East 6.9mph /  11.1km/h 6.9mph /  11.1km/h 80% 0.00in /  0mm WeatherDisplay:10.37 W/m2 CLR
19:46 42.2 °F /  5.7 °C 36.8 °F /  2.7 °C 30.10in /  1019.2hPa East 5.0mph /  8km/h 5.0mph /  8km/h 81% 0.00in /  0mm WeatherDisplay:10.37 W/m2 CLR
19:51 42.1 °F /  5.6 °C 36.7 °F /  2.6 °C 30.10in /  1019.2hPa East 5.8mph /  9.3km/h 5.8mph /  9.3km/h 81% 0.00in /  0mm WeatherDisplay:10.37 W/m2 CLR
19:56 42.0 °F /  5.6 °C 36.6 °F /  2.6 °C 30.10in /  1019.2hPa East 5.8mph /  9.3km/h 5.8mph /  9.3km/h 81% 0.00in /  0mm WeatherDisplay:10.37 W/m2 CLR
20:01 42.0 °F /  5.6 °C 36.9 °F /  2.7 °C 30.10in /  1019.2hPa ESE 4.6mph /  7.4km/h 4.6mph /  7.4km/h 82% 0.00in /  0mm WeatherDisplay:10.37 W/m2 CLR
20:06 42.0 °F /  5.6 °C 36.9 °F /  2.7 °C 30.10in /  1019.2hPa SSE 3.5mph /  5.6km/h 3.5mph /  5.6km/h 82% 0.00in /  0mm WeatherDisplay:10.37 W/m2 CLR
20:11 42.0 °F /  5.6 °C 36.9 °F /  2.7 °C 30.10in /  1019.2hPa East 3.5mph /  5.6km/h 3.5mph /  5.6km/h 82% 0.00in /  0mm WeatherDisplay:10.37 W/m2 CLR
20:16 42.0 °F /  5.6 °C 36.6 °F /  2.6 °C 30.11in /  1019.5hPa ENE 5.0mph /  8km/h 5.0mph /  8km/h 81% 0.00in /  0mm WeatherDisplay:10.37 W/m2 CLR
20:21 41.9 °F /  5.5 °C 36.5 °F /  2.5 °C 30.11in /  1019.5hPa ESE 4.6mph /  7.4km/h 4.6mph /  7.4km/h 81% 0.00in /  0mm WeatherDisplay:10.37 W/m2 CLR
20:26 41.9 °F /  5.5 °C 36.8 °F /  2.7 °C 30.11in /  1019.5hPa ESE 3.5mph /  5.6km/h 3.5mph /  5.6km/h 82% 0.00in /  0mm WeatherDisplay:10.37 W/m2 CLR
20:31 41.9 °F /  5.5 °C 36.8 °F /  2.7 °C 30.11in /  1019.5hPa East 3.5mph /  5.6km/h 3.5mph /  5.6km/h 82% 0.00in /  0mm WeatherDisplay:10.37 W/m2 CLR
20:36 41.9 °F /  5.5 °C 37.1 °F /  2.8 °C 30.12in /  1019.9hPa ESE 4.0mph /  6.4km/h 4.0mph /  6.4km/h 83% 0.00in /  0mm WeatherDisplay:10.37 W/m2 CLR
20:41 41.9 °F /  5.5 °C 37.1 °F /  2.8 °C 30.12in /  1019.9hPa ESE 3.5mph /  5.6km/h 3.5mph /  5.6km/h 83% 0.00in /  0mm WeatherDisplay:10.37 W/m2 CLR
20:46 41.9 °F /  5.5 °C 37.1 °F /  2.8 °C 30.12in /  1019.9hPa ESE 4.0mph /  6.4km/h 4.0mph /  6.4km/h 83% 0.00in /  0mm WeatherDisplay:10.37 W/m2 CLR
20:51 41.8 °F /  5.4 °C 37.0 °F /  2.8 °C 30.12in /  1019.9hPa East 4.6mph /  7.4km/h 4.6mph /  7.4km/h 83% 0.00in /  0mm WeatherDisplay:10.37 W/m2 CLR
20:57 41.7 °F /  5.4 °C 36.9 °F /  2.7 °C 30.12in /  1019.9hPa East 4.0mph /  6.4km/h 4.0mph /  6.4km/h 83% 0.00in /  0mm WeatherDisplay:10.37 W/m2 CLR
21:02 41.6 °F /  5.3 °C 37.1 °F /  2.8 °C 30.12in /  1019.9hPa ESE 3.0mph /  4.8km/h 3.0mph /  4.8km/h 84% 0.00in /  0mm WeatherDisplay:10.37 W/m2 CLR
21:07 41.6 °F /  5.3 °C 36.8 °F /  2.7 °C 30.13in /  1020.2hPa SE 3.5mph /  5.6km/h 3.5mph /  5.6km/h 83% 0.00in /  0mm WeatherDisplay:10.37 W/m2 CLR
21:12 41.5 °F /  5.3 °C 36.7 °F /  2.6 °C 30.13in /  1020.2hPa ESE 3.5mph /  5.6km/h 3.5mph /  5.6km/h 83% 0.00in /  0mm WeatherDisplay:10.37 W/m2 CLR
21:17 41.6 °F /  5.3 °C 37.1 °F /  2.8 °C 30.13in /  1020.2hPa SE 3.5mph /  5.6km/h 3.5mph /  5.6km/h 84% 0.00in /  0mm WeatherDisplay:10.37 W/m2 CLR
21:22 41.6 °F /  5.3 °C 37.1 °F /  2.8 °C 30.13in /  1020.2hPa South 3.5mph /  5.6km/h 3.5mph /  5.6km/h 84% 0.00in /  0mm WeatherDisplay:10.37 W/m2 CLR
21:27 41.5 °F /  5.3 °C 36.7 °F /  2.6 °C 30.13in /  1020.2hPa SE 6.9mph /  11.1km/h 6.9mph /  11.1km/h 83% 0.00in /  0mm WeatherDisplay:10.37 W/m2 CLR
21:32 41.4 °F /  5.2 °C 36.9 °F /  2.7 °C 30.14in /  1020.5hPa SSE 5.0mph /  8km/h 5.0mph /  8km/h 84% 0.00in /  0mm WeatherDisplay:10.37 W/m2 CLR
21:37 41.4 °F /  5.2 °C 36.6 °F /  2.6 °C 30.15in /  1020.9hPa SSE 5.8mph /  9.3km/h 5.8mph /  9.3km/h 83% 0.00in /  0mm WeatherDisplay:10.37 W/m2 CLR
21:42 41.4 °F /  5.2 °C 36.6 °F /  2.6 °C 30.15in /  1020.9hPa SE 5.8mph /  9.3km/h 5.8mph /  9.3km/h 83% 0.00in /  0mm WeatherDisplay:10.37 W/m2 CLR
21:47 41.3 °F /  5.2 °C 36.8 °F /  2.7 °C 30.15in /  1020.9hPa SSE 4.6mph /  7.4km/h 4.6mph /  7.4km/h 84% 0.00in /  0mm WeatherDisplay:10.37 W/m2 CLR
21:52 41.3 °F /  5.2 °C 36.8 °F /  2.7 °C 30.15in /  1020.9hPa SE 4.0mph /  6.4km/h 4.0mph /  6.4km/h 84% 0.01in /  0.25mm WeatherDisplay:10.37 W/m2 RA
21:57 41.1 °F /  5.1 °C 36.6 °F /  2.6 °C 30.15in /  1020.9hPa SE 5.0mph /  8km/h 5.0mph /  8km/h 84% 0.01in /  0.25mm WeatherDisplay:10.37 W/m2 RA
22:02 41.1 °F /  5.1 °C 36.9 °F /  2.7 °C 30.17in /  1021.6hPa SE 3.5mph /  5.6km/h 3.5mph /  5.6km/h 85% 0.01in /  0.25mm WeatherDisplay:10.37 W/m2 CLR
22:07 41.1 °F /  5.1 °C 36.9 °F /  2.7 °C 30.17in /  1021.6hPa SE 4.0mph /  6.4km/h 4.0mph /  6.4km/h 85% 0.01in /  0.25mm WeatherDisplay:10.37 W/m2 CLR
22:12 41.0 °F /  5 °C 36.8 °F /  2.7 °C 30.17in /  1021.6hPa SSE 4.0mph /  6.4km/h 4.0mph /  6.4km/h 85% 0.01in /  0.25mm WeatherDisplay:10.37 W/m2 CLR
22:17 41.0 °F /  5 °C 36.5 °F /  2.5 °C 30.17in /  1021.6hPa SSE 5.8mph /  9.3km/h 5.8mph /  9.3km/h 84% 0.01in /  0.25mm WeatherDisplay:10.37 W/m2 CLR
22:22 40.9 °F /  4.9 °C 36.7 °F /  2.6 °C 30.17in /  1021.6hPa ESE 5.8mph /  9.3km/h 5.8mph /  9.3km/h 85% 0.01in /  0.25mm WeatherDisplay:10.37 W/m2 CLR
22:27 40.9 °F /  4.9 °C 36.7 °F /  2.6 °C 30.17in /  1021.6hPa SSE 5.0mph /  8km/h 5.0mph /  8km/h 85% 0.01in /  0.25mm WeatherDisplay:10.37 W/m2 CLR
22:32 40.9 °F /  4.9 °C 36.7 °F /  2.6 °C 30.17in /  1021.6hPa SSE 5.8mph /  9.3km/h 5.8mph /  9.3km/h 85% 0.01in /  0.25mm WeatherDisplay:10.37 W/m2 CLR
22:37 40.9 °F /  4.9 °C 37.0 °F /  2.8 °C 30.17in /  1021.6hPa SE 5.0mph /  8km/h 5.0mph /  8km/h 86% 0.01in /  0.25mm WeatherDisplay:10.37 W/m2 CLR
22:42 40.9 °F /  4.9 °C 36.7 °F /  2.6 °C 30.17in /  1021.6hPa SE 5.8mph /  9.3km/h 5.8mph /  9.3km/h 85% 0.01in /  0.25mm WeatherDisplay:10.37 W/m2 CLR
22:47 40.9 °F /  4.9 °C 36.4 °F /  2.4 °C 30.17in /  1021.6hPa SSE 4.6mph /  7.4km/h 4.6mph /  7.4km/h 84% 0.01in /  0.25mm WeatherDisplay:10.37 W/m2 CLR
22:52 40.8 °F /  4.9 °C 36.3 °F /  2.4 °C 30.17in /  1021.6hPa SE 6.9mph /  11.1km/h 6.9mph /  11.1km/h 84% 0.00in /  0mm WeatherDisplay:10.37 W/m2 CLR
22:57 40.7 °F /  4.8 °C 36.2 °F /  2.3 °C 30.17in /  1021.6hPa SSE 3.5mph /  5.6km/h 3.5mph /  5.6km/h 84% 0.00in /  0mm WeatherDisplay:10.37 W/m2 CLR
23:02 40.6 °F /  4.8 °C 36.1 °F /  2.3 °C 30.17in /  1021.6hPa SSE 4.6mph /  7.4km/h 4.6mph /  7.4km/h 84% 0.00in /  0mm WeatherDisplay:10.37 W/m2 CLR
23:07 40.5 °F /  4.7 °C 36.0 °F /  2.2 °C 30.17in /  1021.6hPa SSE 4.6mph /  7.4km/h 4.6mph /  7.4km/h 84% 0.00in /  0mm WeatherDisplay:10.37 W/m2 CLR
23:12 40.4 °F /  4.7 °C 36.2 °F /  2.3 °C 30.17in /  1021.6hPa SSE 6.9mph /  11.1km/h 6.9mph /  11.1km/h 85% 0.00in /  0mm WeatherDisplay:10.37 W/m2 CLR
23:17 40.4 °F /  4.7 °C 36.5 °F /  2.5 °C 30.17in /  1021.6hPa SSE 4.0mph /  6.4km/h 4.0mph /  6.4km/h 86% 0.00in /  0mm WeatherDisplay:10.37 W/m2 CLR
23:22 40.3 °F /  4.6 °C 36.4 °F /  2.4 °C 30.17in /  1021.6hPa SE 3.5mph /  5.6km/h 3.5mph /  5.6km/h 86% 0.00in /  0mm WeatherDisplay:10.37 W/m2 CLR
23:27 40.4 °F /  4.7 °C 36.5 °F /  2.5 °C 30.17in /  1021.6hPa SE 3.5mph /  5.6km/h 3.5mph /  5.6km/h 86% 0.00in /  0mm WeatherDisplay:10.37 W/m2 CLR
23:32 40.4 °F /  4.7 °C 36.5 °F /  2.5 °C 30.17in /  1021.6hPa SE 3.5mph /  5.6km/h 3.5mph /  5.6km/h 86% 0.00in /  0mm WeatherDisplay:10.37 W/m2 CLR
23:37 40.4 °F /  4.7 °C 36.5 °F /  2.5 °C 30.17in /  1021.6hPa SE 3.5mph /  5.6km/h 3.5mph /  5.6km/h 86% 0.00in /  0mm WeatherDisplay:10.37 W/m2 CLR
23:42 40.4 °F /  4.7 °C 36.5 °F /  2.5 °C 30.17in /  1021.6hPa SE 2.3mph /  3.7km/h 2.3mph /  3.7km/h 86% 0.00in /  0mm WeatherDisplay:10.37 W/m2 CLR
23:47 40.4 °F /  4.7 °C 36.5 °F /  2.5 °C 30.17in /  1021.6hPa SE 4.6mph /  7.4km/h 4.6mph /  7.4km/h 86% 0.00in /  0mm WeatherDisplay:10.37 W/m2 CLR
23:48 40.4 °F /  4.7 °C 36.5 °F /  2.5 °C 30.17in /  1021.6hPa SE 3.5mph /  5.6km/h 3.5mph /  5.6km/h 86% 0.00in /  0mm WeatherDisplay:10.37 W/m2 CLR
23:53 40.4 °F /  4.7 °C 36.8 °F /  2.7 °C 30.17in /  1021.6hPa SE 2.3mph /  3.7km/h 2.3mph /  3.7km/h 87% 0.00in /  0mm WeatherDisplay:10.37 W/m2 CLR
23:58 40.4 °F /  4.7 °C 36.8 °F /  2.7 °C 30.17in /  1021.6hPa SE 2.0mph /  3.2km/h 2.0mph /  3.2km/h 87% 0.00in /  0mm WeatherDisplay:10.37 W/m2 CLR
Windsor Co Weather
Compliments of Weather Underground - 3 mb